Time;durP1;ratioP1;P1;durP2;ratioP2;P2;SDS_P1;SDS_P2;PMS_P1;PMS_P2;Temp;Humidity;BMP_temperature;BMP_pressure;BME280_temperature;BME280_humidity;BME280_pressure;Samples;Min_cycle;Max_cycle;Signal;HPM_P1;HPM_P2
2022/09/26 00:01:08;;;;;;;2.70;0.82;;;11.20;99.90;;;;;;5017458;28;20580;-79
2022/09/26 00:03:34;;;;;;;2.17;1.05;;;11.20;99.90;;;;;;5018090;28;20128;-79
2022/09/26 00:06:02;;;;;;;2.45;1.40;;;11.30;99.90;;;;;;5018368;28;20106;-79
2022/09/26 00:08:28;;;;;;;1.60;1.05;;;11.30;99.90;;;;;;5034660;28;20037;-79
2022/09/26 00:10:57;;;;;;;3.08;1.27;;;11.30;99.90;;;;;;5033703;28;20041;-79
2022/09/26 00:13:23;;;;;;;2.00;1.20;;;11.30;99.90;;;;;;5034162;28;20056;-79
2022/09/26 00:15:49;;;;;;;4.53;1.27;;;11.30;99.90;;;;;;5017647;28;20055;-79
2022/09/26 00:18:15;;;;;;;2.53;1.35;;;11.30;99.90;;;;;;5001784;28;20042;-78
2022/09/26 00:20:40;;;;;;;4.22;1.35;;;11.30;99.90;;;;;;5033497;28;20092;-78
2022/09/26 00:23:06;;;;;;;4.30;1.23;;;11.30;99.90;;;;;;5034573;28;20053;-78
2022/09/26 00:25:31;;;;;;;1.23;1.00;;;11.30;99.90;;;;;;5034289;28;20041;-78
2022/09/26 00:27:57;;;;;;;2.38;1.20;;;11.30;99.90;;;;;;5018139;28;20099;-78
2022/09/26 00:30:23;;;;;;;1.42;0.93;;;11.30;99.90;;;;;;5017317;28;20049;-78
2022/09/26 00:32:48;;;;;;;2.92;1.20;;;11.30;99.90;;;;;;5017719;28;20044;-78
2022/09/26 00:35:14;;;;;;;1.85;1.20;;;11.40;99.90;;;;;;5017437;28;20037;-78
2022/09/26 00:37:40;;;;;;;5.47;1.25;;;11.40;99.90;;;;;;5001327;28;20099;-78
2022/09/26 00:40:06;;;;;;;1.83;1.30;;;11.40;99.90;;;;;;5033952;28;20049;-78
2022/09/26 00:42:32;;;;;;;3.85;1.25;;;11.40;99.90;;;;;;5033162;28;20046;-78
2022/09/26 00:44:58;;;;;;;1.60;1.17;;;11.30;99.90;;;;;;5034564;28;20041;-78
2022/09/26 00:47:43;;;;;;;2.25;1.10;;;11.40;99.90;;;;;;5000928;28;20041;-78
2022/09/26 00:50:20;;;;;;;3.05;0.98;;;11.40;99.90;;;;;;5030584;28;20045;-78
2022/09/26 00:53:04;;;;;;;3.35;1.30;;;11.40;99.90;;;;;;5033605;28;20042;-78
2022/09/26 00:55:35;;;;;;;5.18;1.33;;;11.40;99.90;;;;;;5033976;28;20056;-78
2022/09/26 00:58:27;;;;;;;2.90;1.10;;;11.40;99.90;;;;;;5033871;28;20080;-78
2022/09/26 01:00:54;;;;;;;1.45;1.10;;;11.40;99.90;;;;;;5012377;28;20053;-78
2022/09/26 01:03:21;;;;;;;1.90;1.25;;;11.40;99.90;;;;;;5033524;28;20049;-78
2022/09/26 01:05:47;;;;;;;1.63;1.08;;;11.40;99.90;;;;;;5017201;28;20041;-78
2022/09/26 01:08:16;;;;;;;6.57;1.73;;;11.40;99.90;;;;;;5000902;28;20068;-78
2022/09/26 01:10:44;;;;;;;3.05;1.13;;;11.40;99.90;;;;;;5033320;28;20045;-78
2022/09/26 01:13:11;;;;;;;1.90;1.23;;;11.30;99.90;;;;;;5032194;28;20147;-78
2022/09/26 01:15:37;;;;;;;3.28;1.73;;;11.40;99.90;;;;;;5001218;28;20041;-78
2022/09/26 01:18:06;;;;;;;1.85;0.98;;;11.40;99.90;;;;;;5032809;28;20129;-78
2022/09/26 01:20:50;;;;;;;4.47;1.15;;;11.40;99.90;;;;;;5033189;28;20116;-78
2022/09/26 01:23:22;;;;;;;2.53;1.15;;;11.40;99.90;;;;;;5015450;28;21294;-78
2022/09/26 01:26:15;;;;;;;3.30;1.52;;;11.50;99.90;;;;;;5032186;28;20081;-78
2022/09/26 01:28:52;;;;;;;6.20;1.38;;;11.40;99.90;;;;;;5016581;28;20075;-78
2022/09/26 01:35:33;;;;;;;2.47;1.55;;;11.40;99.90;;;;;;4957155;28;20485;-78
2022/09/26 01:38:20;;;;;;;4.78;1.33;;;11.40;99.90;;;;;;5013448;28;20038;-78
2022/09/26 01:41:15;;;;;;;2.65;1.30;;;11.40;99.90;;;;;;5017669;28;20045;-79
2022/09/26 01:44:01;;;;;;;2.58;1.00;;;11.40;99.90;;;;;;5031959;28;20048;-79
2022/09/26 01:46:33;;;;;;;2.08;0.98;;;11.40;99.90;;;;;;5032062;28;20057;-79
2022/09/26 01:49:14;;;;;;;3.47;1.15;;;11.40;99.90;;;;;;5032209;28;20045;-79
2022/09/26 01:52:02;;;;;;;3.30;1.40;;;11.30;99.90;;;;;;5032614;28;20112;-79
2022/09/26 01:54:36;;;;;;;1.98;1.08;;;11.30;99.90;;;;;;5015697;28;20045;-79
2022/09/26 01:57:05;;;;;;;2.65;1.30;;;11.30;99.90;;;;;;5032667;28;20368;-79
2022/09/26 01:59:42;;;;;;;4.68;1.10;;;11.30;99.90;;;;;;5032649;28;20130;-79
2022/09/26 02:02:17;;;;;;;1.30;0.85;;;11.30;99.90;;;;;;5032822;28;20085;-79
2022/09/26 02:04:47;;;;;;;4.43;1.50;;;11.30;99.90;;;;;;5032223;28;20041;-79
2022/09/26 02:07:21;;;;;;;3.97;1.15;;;11.30;99.90;;;;;;5032510;28;20499;-79
2022/09/26 02:09:52;;;;;;;2.45;1.42;;;11.20;99.90;;;;;;5032522;28;20061;-79
2022/09/26 02:12:31;;;;;;;3.95;1.17;;;11.20;99.90;;;;;;5032533;28;20455;-79
2022/09/26 02:15:00;;;;;;;4.28;1.45;;;11.20;99.90;;;;;;5015153;28;20494;-79
2022/09/26 02:17:32;;;;;;;2.88;0.90;;;11.20;99.90;;;;;;5032011;28;20043;-79
2022/09/26 02:20:09;;;;;;;1.83;1.15;;;11.10;99.90;;;;;;5032288;28;20041;-79
2022/09/26 02:22:35;;;;;;;2.55;1.27;;;11.20;99.90;;;;;;5032575;28;20103;-79
2022/09/26 02:25:03;;;;;;;6.03;1.33;;;11.10;99.90;;;;;;5015001;28;20068;-79
2022/09/26 02:27:29;;;;;;;3.90;1.45;;;11.10;99.90;;;;;;5031647;28;20108;-79
2022/09/26 02:29:55;;;;;;;3.33;1.17;;;11.10;99.90;;;;;;5015715;28;20395;-78
2022/09/26 02:32:28;;;;;;;2.83;1.77;;;11.10;99.90;;;;;;5015534;28;20132;-78
2022/09/26 02:34:55;;;;;;;1.65;1.20;;;11.10;99.90;;;;;;5015546;28;20045;-78
2022/09/26 02:37:21;;;;;;;3.08;1.67;;;11.00;99.90;;;;;;5031535;28;20112;-78
2022/09/26 02:39:49;;;;;;;5.63;1.45;;;11.10;99.90;;;;;;5032069;28;20121;-78
2022/09/26 02:42:32;;;;;;;5.63;1.27;;;11.00;99.90;;;;;;4999332;28;20044;-78
2022/09/26 02:45:20;;;;;;;4.32;1.50;;;11.00;99.90;;;;;;5032219;28;20490;-78
2022/09/26 02:48:04;;;;;;;1.83;1.20;;;11.00;99.90;;;;;;5025920;28;20037;-78
2022/09/26 02:50:57;;;;;;;3.33;1.67;;;11.00;99.90;;;;;;5031672;28;20055;-78
2022/09/26 02:53:39;;;;;;;3.33;1.27;;;11.00;99.90;;;;;;5031622;28;20068;-78
2022/09/26 02:56:17;;;;;;;3.53;1.23;;;11.00;99.90;;;;;;5031512;28;20057;-78
2022/09/26 02:58:58;;;;;;;2.45;1.27;;;11.00;99.90;;;;;;5031299;28;20048;-78
2022/09/26 03:01:47;;;;;;;4.25;1.35;;;11.00;99.90;;;;;;5031873;28;20524;-78
2022/09/26 03:04:20;;;;;;;3.38;1.67;;;11.00;99.90;;;;;;5032300;28;20096;-78
2022/09/26 03:06:50;;;;;;;4.43;1.40;;;11.00;99.90;;;;;;5031410;28;20041;-79
2022/09/26 03:09:17;;;;;;;3.38;1.38;;;11.00;99.90;;;;;;5031686;28;20049;-79
2022/09/26 03:11:45;;;;;;;5.93;1.42;;;11.10;99.90;;;;;;5015086;28;20042;-79
2022/09/26 03:14:12;;;;;;;5.05;1.65;;;11.00;99.90;;;;;;5015970;28;20114;-79
2022/09/26 03:16:42;;;;;;;2.90;1.70;;;11.00;99.90;;;;;;5015119;28;20495;-79
2022/09/26 03:19:21;;;;;;;2.45;1.52;;;11.10;99.90;;;;;;5015033;28;20040;-79
2022/09/26 03:21:47;;;;;;;2.75;1.25;;;11.10;99.90;;;;;;5031784;28;20482;-79
2022/09/26 03:24:14;;;;;;;4.57;1.80;;;11.10;99.90;;;;;;4999344;28;20041;-79
2022/09/26 03:26:40;;;;;;;4.43;1.83;;;11.10;99.90;;;;;;5031480;28;20045;-79
2022/09/26 03:29:07;;;;;;;3.90;2.00;;;11.10;99.90;;;;;;4998465;28;20073;-78
2022/09/26 03:31:33;;;;;;;10.30;1.90;;;11.10;99.90;;;;;;5015026;28;20475;-78
2022/09/26 03:33:58;;;;;;;4.38;2.00;;;11.10;99.90;;;;;;5031613;28;20052;-78
2022/09/26 03:36:24;;;;;;;4.95;1.98;;;11.10;99.90;;;;;;5015124;28;20038;-79
2022/09/26 03:38:50;;;;;;;6.05;2.20;;;11.10;99.90;;;;;;5031302;28;20124;-79
2022/09/26 03:41:16;;;;;;;4.82;1.75;;;11.10;99.90;;;;;;5031377;28;20128;-79
2022/09/26 03:43:42;;;;;;;5.38;2.13;;;11.10;99.90;;;;;;5031799;28;20045;-79
2022/09/26 03:46:10;;;;;;;2.28;1.45;;;11.10;99.90;;;;;;5031500;28;20121;-79
2022/09/26 03:48:37;;;;;;;2.47;1.30;;;11.10;99.90;;;;;;5016442;28;20042;-79
2022/09/26 03:51:04;;;;;;;4.13;1.73;;;11.10;99.90;;;;;;5034610;28;20095;-79
2022/09/26 03:53:34;;;;;;;2.40;1.42;;;11.10;99.90;;;;;;5034773;28;20132;-80
2022/09/26 03:56:08;;;;;;;3.30;1.67;;;11.10;99.90;;;;;;5034921;28;20088;-80
2022/09/26 03:58:34;;;;;;;4.00;1.80;;;11.10;99.90;;;;;;5018148;28;20116;-79
2022/09/26 04:01:06;;;;;;;3.13;1.83;;;11.20;99.90;;;;;;5034899;28;20058;-79
2022/09/26 04:03:36;;;;;;;4.07;1.50;;;11.10;99.90;;;;;;5018445;28;20042;-79
2022/09/26 04:06:03;;;;;;;3.30;2.17;;;11.10;99.90;;;;;;5034747;28;20053;-79
2022/09/26 04:08:30;;;;;;;4.60;2.10;;;11.10;99.90;;;;;;5018241;28;20048;-79
2022/09/26 04:11:04;;;;;;;4.88;1.98;;;11.10;99.90;;;;;;5017478;28;20116;-79
2022/09/26 04:13:30;;;;;;;6.25;1.88;;;11.10;99.90;;;;;;5018118;28;20123;-79
2022/09/26 04:15:57;;;;;;;4.82;1.67;;;11.10;99.90;;;;;;5018135;28;20038;-79
2022/09/26 04:18:23;;;;;;;4.75;1.88;;;11.10;99.90;;;;;;5034541;28;20041;-79
2022/09/26 04:20:49;;;;;;;1.83;1.30;;;11.10;99.90;;;;;;5017466;28;20087;-79
2022/09/26 04:23:15;;;;;;;2.55;1.50;;;11.00;99.90;;;;;;5017921;28;20107;-79
2022/09/26 04:25:41;;;;;;;3.08;1.70;;;11.00;99.90;;;;;;5034427;28;20100;-79
2022/09/26 04:28:07;;;;;;;3.95;2.05;;;11.10;99.90;;;;;;5018262;28;20540;-79
2022/09/26 04:30:32;;;;;;;3.50;2.00;;;11.10;99.90;;;;;;5033754;28;20484;-79
2022/09/26 04:32:58;;;;;;;3.08;2.00;;;11.10;99.90;;;;;;5033583;28;20052;-79
2022/09/26 04:35:24;;;;;;;5.22;2.15;;;11.10;99.90;;;;;;5034264;28;20045;-79
2022/09/26 04:37:50;;;;;;;3.75;2.00;;;11.10;99.90;;;;;;5017507;28;20044;-79
2022/09/26 04:40:16;;;;;;;6.20;1.90;;;11.10;99.90;;;;;;5017639;28;20041;-79
2022/09/26 04:42:42;;;;;;;3.63;2.20;;;11.10;99.90;;;;;;5000147;28;20068;-79
2022/09/26 04:45:08;;;;;;;3.28;2.28;;;11.10;99.90;;;;;;5033897;28;20041;-79
2022/09/26 04:47:33;;;;;;;2.67;1.80;;;11.00;99.90;;;;;;5033750;28;20494;-79
2022/09/26 04:49:59;;;;;;;2.92;1.70;;;11.00;99.90;;;;;;5012583;28;20045;-79
2022/09/26 04:52:25;;;;;;;3.75;1.98;;;11.00;99.90;;;;;;5034073;28;20095;-80
2022/09/26 04:54:51;;;;;;;4.13;2.50;;;11.00;99.90;;;;;;5033189;28;20410;-79
2022/09/26 04:57:17;;;;;;;3.38;2.00;;;11.00;99.90;;;;;;5017666;28;20049;-79
2022/09/26 04:59:43;;;;;;;3.60;1.80;;;11.00;99.90;;;;;;5032787;28;20091;-80
2022/09/26 05:02:09;;;;;;;4.60;1.88;;;11.00;99.90;;;;;;5017211;28;20041;-80
2022/09/26 05:04:34;;;;;;;3.60;1.92;;;11.00;99.90;;;;;;5033162;28;20083;-79
2022/09/26 05:07:00;;;;;;;2.90;1.77;;;11.00;99.90;;;;;;5032962;28;20033;-79
2022/09/26 05:09:26;;;;;;;2.35;1.50;;;11.00;99.90;;;;;;5017126;28;20038;-79
2022/09/26 05:11:52;;;;;;;3.58;2.00;;;11.00;99.90;;;;;;5032556;28;20049;-79
2022/09/26 05:14:17;;;;;;;4.15;2.20;;;11.00;99.90;;;;;;5032982;28;20049;-79
2022/09/26 05:16:43;;;;;;;7.10;3.17;;;11.00;99.90;;;;;;5033072;28;20033;-80
2022/09/26 05:19:09;;;;;;;3.78;1.95;;;11.20;99.90;;;;;;5000953;28;20033;-80
2022/09/26 05:21:35;;;;;;;4.85;2.58;;;11.00;99.90;;;;;;5033572;28;20399;-80
2022/09/26 05:26:48;;;;;;;5.20;1.85;;;11.00;99.90;;;;;;5032972;28;20487;-80
2022/09/26 05:29:15;;;;;;;7.32;2.28;;;10.90;99.90;;;;;;5033240;28;20128;-80
2022/09/26 05:31:40;;;;;;;3.58;2.08;;;11.00;99.90;;;;;;5016339;28;20047;-79
2022/09/26 05:34:11;;;;;;;4.90;2.30;;;11.00;99.90;;;;;;4996537;28;20126;-79
2022/09/26 05:36:38;;;;;;;5.22;2.33;;;11.00;99.90;;;;;;5021717;28;20037;-79
2022/09/26 05:40:55;;;;;;;8.07;3.15;;;10.90;99.90;;;;;;5032831;28;20128;-79
2022/09/26 05:41:52;;;;;;;6.68;2.40;;;10.90;99.90;;;;;;5032936;28;20072;-79
2022/09/26 05:44:18;;;;;;;4.05;2.50;;;11.00;99.90;;;;;;5032323;28;20483;-79
2022/09/26 05:46:44;;;;;;;3.90;2.25;;;10.90;99.90;;;;;;5031874;28;20053;-79
2022/09/26 05:49:11;;;;;;;3.28;2.00;;;11.00;99.90;;;;;;5032637;28;20068;-79
2022/09/26 05:51:40;;;;;;;3.28;2.08;;;10.90;99.90;;;;;;5032606;28;20037;-79
2022/09/26 05:54:06;;;;;;;6.22;2.47;;;10.90;99.90;;;;;;5032853;28;20037;-79
2022/09/26 05:56:36;;;;;;;4.22;2.30;;;10.90;99.90;;;;;;5006897;28;20034;-79
2022/09/26 05:59:03;;;;;;;7.15;2.38;;;10.90;99.90;;;;;;5030635;28;20091;-79
2022/09/26 06:01:30;;;;;;;5.90;1.85;;;10.90;99.90;;;;;;5015168;28;20033;-79
2022/09/26 06:03:56;;;;;;;5.38;2.10;;;10.90;99.90;;;;;;5016191;28;20486;-79
2022/09/26 06:06:22;;;;;;;6.72;2.10;;;10.90;99.90;;;;;;5032737;28;20049;-79
2022/09/26 06:08:48;;;;;;;4.78;2.47;;;10.90;99.90;;;;;;5015584;28;20095;-79
2022/09/26 06:11:16;;;;;;;7.13;2.60;;;10.90;99.90;;;;;;5030652;28;20034;-79
2022/09/26 06:13:44;;;;;;;4.80;2.42;;;10.90;99.90;;;;;;5012580;28;20072;-79
2022/09/26 06:16:17;;;;;;;6.20;2.08;;;10.90;99.90;;;;;;5013453;28;20126;-79
2022/09/26 06:18:43;;;;;;;4.43;2.22;;;10.90;99.90;;;;;;5032058;28;20037;-79
2022/09/26 06:21:10;;;;;;;8.18;2.00;;;10.90;99.90;;;;;;5015773;28;20479;-79
2022/09/26 06:23:36;;;;;;;3.92;2.10;;;10.80;99.90;;;;;;5032392;28;20407;-79
2022/09/26 06:26:07;;;;;;;5.55;2.22;;;10.90;99.90;;;;;;4982880;28;20041;-79
2022/09/26 06:28:34;;;;;;;3.83;2.08;;;10.90;99.90;;;;;;5028474;28;20076;-79
2022/09/26 06:31:00;;;;;;;3.58;1.90;;;10.90;99.90;;;;;;5015700;28;20052;-79
2022/09/26 06:33:25;;;;;;;4.57;1.80;;;10.90;99.90;;;;;;5032072;28;20033;-78
2022/09/26 06:36:04;;;;;;;2.67;1.50;;;10.90;99.90;;;;;;5032083;28;20380;-78
2022/09/26 06:38:30;;;;;;;4.97;2.05;;;10.90;99.90;;;;;;5032095;28;20048;-78
2022/09/26 06:40:56;;;;;;;3.42;1.90;;;10.90;99.90;;;;;;5015934;28;20049;-79
2022/09/26 06:43:22;;;;;;;5.55;2.13;;;10.90;99.90;;;;;;5031730;28;20546;-79
2022/09/26 06:45:48;;;;;;;3.63;2.03;;;10.90;99.90;;;;;;5032084;28;20041;-79
2022/09/26 06:48:21;;;;;;;3.50;1.98;;;10.90;99.90;;;;;;5031659;28;20179;-79
2022/09/26 06:50:54;;;;;;;6.32;2.00;;;10.90;99.90;;;;;;5031520;28;20088;-79
2022/09/26 06:53:20;;;;;;;4.78;1.88;;;10.90;99.90;;;;;;5032022;28;20041;-79
2022/09/26 06:55:46;;;;;;;5.28;2.20;;;10.90;99.90;;;;;;5031864;28;20045;-79
2022/09/26 06:58:12;;;;;;;5.32;1.60;;;10.90;99.90;;;;;;5031651;28;20480;-79
2022/09/26 07:00:39;;;;;;;4.72;2.35;;;10.90;99.90;;;;;;5014307;28;20048;-80
2022/09/26 07:03:05;;;;;;;6.32;2.88;;;10.90;99.90;;;;;;5031665;28;20053;-80
2022/09/26 07:05:31;;;;;;;3.08;1.90;;;10.90;99.90;;;;;;5014693;28;20132;-79
2022/09/26 07:07:57;;;;;;;3.25;1.67;;;10.90;99.90;;;;;;5031838;28;20045;-80
2022/09/26 07:10:23;;;;;;;4.18;1.88;;;10.90;99.90;;;;;;5015308;28;20042;-79
2022/09/26 07:12:50;;;;;;;5.38;1.80;;;11.00;99.90;;;;;;5027395;28;20496;-79
2022/09/26 07:15:18;;;;;;;4.53;1.90;;;11.00;99.90;;;;;;5023291;28;20048;-80
2022/09/26 07:17:46;;;;;;;2.83;1.80;;;11.00;99.90;;;;;;5025671;28;20045;-79
2022/09/26 07:20:16;;;;;;;2.67;1.58;;;11.00;99.90;;;;;;5029353;28;20048;-79
2022/09/26 07:22:42;;;;;;;5.45;1.92;;;11.00;99.90;;;;;;5030996;28;20042;-79
2022/09/26 07:25:08;;;;;;;7.30;2.10;;;11.10;99.90;;;;;;5035515;28;20037;-80
2022/09/26 07:27:34;;;;;;;3.25;1.83;;;11.20;99.90;;;;;;5037895;22;20103;-80
2022/09/26 07:30:00;;;;;;;3.45;1.95;;;11.20;99.90;;;;;;4996795;28;20037;-79
2022/09/26 07:32:29;;;;;;;4.72;1.90;;;11.30;99.90;;;;;;5032022;28;20038;-79
2022/09/26 07:34:58;;;;;;;2.97;1.65;;;11.40;99.90;;;;;;5025359;28;20038;-79
2022/09/26 07:37:24;;;;;;;2.38;1.60;;;11.60;99.90;;;;;;5004093;28;20042;-79
2022/09/26 07:39:49;;;;;;;5.93;1.70;;;11.50;99.90;;;;;;5026070;28;20037;-79
2022/09/26 07:42:16;;;;;;;3.25;1.80;;;11.50;99.90;;;;;;5007043;28;20468;-79
2022/09/26 07:44:43;;;;;;;3.42;2.10;;;11.50;99.90;;;;;;5012557;28;20077;-79
2022/09/26 07:52:38;;;;;;;4.22;1.60;;;11.60;99.90;;;;;;5015584;28;20121;-78
2022/09/26 07:55:06;;;;;;;3.33;1.98;;;11.70;99.90;;;;;;5017954;28;20104;-78
2022/09/26 07:57:34;;;;;;;2.90;1.60;;;11.80;99.90;;;;;;4995452;28;20052;-78
2022/09/26 08:00:01;;;;;;;2.55;1.38;;;11.80;99.90;;;;;;5012885;28;20433;-79
2022/09/26 08:02:32;;;;;;;2.58;1.55;;;11.80;99.90;;;;;;5016283;28;20041;-79
2022/09/26 08:04:59;;;;;;;6.70;1.80;;;11.80;99.90;;;;;;5008856;28;20459;-79
2022/09/26 08:07:25;;;;;;;5.85;1.80;;;11.90;99.90;;;;;;4996073;28;20072;-79
2022/09/26 08:09:54;;;;;;;3.72;1.73;;;11.90;99.90;;;;;;4993368;28;20073;-79
2022/09/26 08:12:19;;;;;;;4.47;1.52;;;12.00;99.90;;;;;;5008975;28;20038;-79
2022/09/26 08:14:47;;;;;;;3.83;2.00;;;12.00;99.90;;;;;;5014925;28;20434;-79
2022/09/26 08:17:14;;;;;;;3.47;1.45;;;12.00;99.90;;;;;;5007028;28;20056;-79
2022/09/26 08:19:39;;;;;;;2.45;1.15;;;12.10;99.90;;;;;;5027361;28;20038;-79
2022/09/26 08:22:07;;;;;;;3.63;1.27;;;12.10;99.90;;;;;;5018421;28;20140;-79
2022/09/26 08:24:33;;;;;;;5.43;1.75;;;12.10;99.90;;;;;;5014262;28;20045;-79
2022/09/26 08:26:59;;;;;;;4.40;1.50;;;12.10;99.90;;;;;;4998236;28;20103;-79
2022/09/26 08:29:25;;;;;;;2.00;1.13;;;12.10;99.90;;;;;;5006378;28;20066;-79
2022/09/26 08:31:53;;;;;;;2.53;1.27;;;12.10;99.90;;;;;;5010603;28;20138;-79
2022/09/26 08:34:20;;;;;;;4.60;1.40;;;12.10;99.90;;;;;;4999408;28;20478;-79
2022/09/26 08:36:53;;;;;;;1.75;1.15;;;12.20;99.90;;;;;;5024058;28;20049;-78
2022/09/26 08:39:22;;;;;;;2.60;1.48;;;12.30;99.90;;;;;;4999019;28;20119;-78
2022/09/26 08:42:16;;;;;;;2.85;1.17;;;12.40;99.90;;;;;;5019725;28;20041;-78
2022/09/26 08:45:01;;;;;;;3.35;1.33;;;12.50;99.90;;;;;;5024854;28;20041;-78
2022/09/26 08:47:38;;;;;;;3.25;1.48;;;12.60;99.90;;;;;;4996974;28;20040;-78
2022/09/26 08:50:41;;;;;;;4.80;1.92;;;12.70;99.90;;;;;;5009076;28;20085;-78
2022/09/26 08:53:17;;;;;;;5.07;2.28;;;12.80;99.90;;;;;;4984968;28;20116;-79
2022/09/26 08:55:48;;;;;;;2.30;1.40;;;12.90;99.90;;;;;;5027131;28;20116;-79
2022/09/26 08:58:25;;;;;;;5.40;1.55;;;12.90;99.90;;;;;;5024143;28;20029;-79
2022/09/26 09:00:56;;;;;;;2.85;1.58;;;12.90;99.90;;;;;;5025244;28;20054;-79
2022/09/26 09:03:34;;;;;;;3.10;1.70;;;12.90;99.90;;;;;;5014628;28;20127;-79
2022/09/26 09:06:09;;;;;;;7.75;1.70;;;12.90;99.90;;;;;;4994818;28;20477;-79
2022/09/26 09:08:39;;;;;;;5.25;1.92;;;12.80;99.90;;;;;;5004684;28;20045;-79
2022/09/26 09:11:23;;;;;;;2.85;1.40;;;12.90;99.90;;;;;;5009735;28;20120;-80
2022/09/26 09:13:58;;;;;;;4.05;1.60;;;12.80;99.90;;;;;;4995044;28;20151;-79
2022/09/26 09:16:35;;;;;;;3.28;1.60;;;12.80;99.90;;;;;;4992437;28;20038;-79
2022/09/26 09:19:21;;;;;;;2.45;1.65;;;12.70;99.90;;;;;;4988508;28;20096;-79
2022/09/26 09:22:02;;;;;;;3.87;1.63;;;12.80;99.90;;;;;;5001064;28;20041;-79
2022/09/26 09:24:37;;;;;;;6.18;1.45;;;12.70;99.90;;;;;;4995860;28;20085;-79
2022/09/26 09:27:11;;;;;;;4.30;1.58;;;12.70;99.90;;;;;;4996035;28;20053;-78
2022/09/26 09:29:46;;;;;;;3.95;1.55;;;12.70;99.90;;;;;;5016185;28;20041;-78
2022/09/26 09:32:18;;;;;;;3.35;1.50;;;12.60;99.90;;;;;;5026212;28;20128;-78
2022/09/26 09:34:45;;;;;;;3.47;1.60;;;12.60;99.90;;;;;;5004171;28;20038;-78
2022/09/26 09:37:17;;;;;;;3.30;1.50;;;12.60;99.90;;;;;;5031617;28;20037;-78
2022/09/26 09:39:46;;;;;;;3.53;1.52;;;12.50;99.90;;;;;;5032990;28;20133;-78
2022/09/26 09:42:21;;;;;;;4.18;2.08;;;12.40;99.90;;;;;;5000862;28;20113;-78
2022/09/26 09:44:54;;;;;;;2.97;1.75;;;12.40;99.90;;;;;;4996885;28;20400;-79
2022/09/26 09:47:20;;;;;;;4.70;2.05;;;12.30;99.90;;;;;;5012583;28;20044;-79
2022/09/26 09:49:48;;;;;;;5.97;1.67;;;12.40;99.90;;;;;;5008034;28;20064;-79
2022/09/26 09:52:29;;;;;;;3.65;1.80;;;12.40;99.90;;;;;;5019219;28;20041;-79
2022/09/26 09:54:58;;;;;;;4.50;1.90;;;12.40;99.90;;;;;;4992218;28;20044;-79
2022/09/26 09:58:01;;;;;;;3.28;1.83;;;12.30;99.90;;;;;;5013151;28;20107;-79
2022/09/26 10:00:28;;;;;;;3.88;1.80;;;12.30;99.90;;;;;;4996892;28;20038;-78
2022/09/26 10:03:11;;;;;;;4.57;1.63;;;12.20;99.90;;;;;;5022412;28;20087;-78
2022/09/26 10:05:44;;;;;;;4.75;1.98;;;12.20;99.90;;;;;;5022196;28;20451;-78
2022/09/26 10:08:12;;;;;;;2.30;1.48;;;12.10;99.90;;;;;;5013048;28;20042;-78
2022/09/26 10:11:04;;;;;;;4.45;2.08;;;12.10;99.90;;;;;;5012462;28;20084;-78
2022/09/26 10:13:31;;;;;;;7.13;2.72;;;12.20;99.90;;;;;;5022961;28;20049;-78
2022/09/26 10:16:04;;;;;;;4.03;1.73;;;12.20;99.90;;;;;;5021830;28;20431;-78
2022/09/26 10:18:30;;;;;;;3.83;2.00;;;12.20;99.90;;;;;;4996583;28;20127;-78
2022/09/26 10:21:01;;;;;;;3.10;1.77;;;12.10;99.90;;;;;;5012643;28;20492;-78
2022/09/26 10:23:39;;;;;;;3.33;2.00;;;12.10;99.90;;;;;;5013146;28;20038;-78
2022/09/26 10:26:08;;;;;;;4.40;2.13;;;12.10;99.90;;;;;;5014884;28;20037;-78
2022/09/26 10:28:46;;;;;;;5.60;2.28;;;12.00;99.90;;;;;;4997270;28;20061;-78
2022/09/26 10:31:28;;;;;;;5.55;1.92;;;12.00;99.90;;;;;;5009589;28;20033;-79
2022/09/26 10:34:04;;;;;;;6.57;2.40;;;12.00;99.90;;;;;;5011807;28;20080;-80
2022/09/26 10:36:35;;;;;;;5.07;2.47;;;11.90;99.90;;;;;;5023456;28;20392;-80
2022/09/26 10:42:21;;;;;;;5.55;2.40;;;11.90;99.90;;;;;;5026877;28;20045;-80
2022/09/26 10:44:49;;;;;;;5.72;1.90;;;11.90;99.90;;;;;;4998427;28;20404;-81
2022/09/26 10:47:25;;;;;;;4.97;2.53;;;11.90;99.90;;;;;;4992924;28;20042;-80
2022/09/26 10:50:02;;;;;;;4.88;2.15;;;11.80;99.90;;;;;;5002947;28;20467;-80
2022/09/26 10:52:39;;;;;;;7.90;2.63;;;11.80;99.90;;;;;;5011480;28;20034;-81
2022/09/26 10:55:11;;;;;;;2.47;1.80;;;11.80;99.90;;;;;;5011709;28;20038;-80
2022/09/26 10:57:44;;;;;;;4.00;2.55;;;11.80;99.90;;;;;;5006885;28;20038;-80
2022/09/26 11:00:36;;;;;;;4.75;2.00;;;11.80;99.90;;;;;;5016970;28;20049;-80
2022/09/26 11:03:17;;;;;;;3.78;2.17;;;11.90;99.90;;;;;;5024573;28;20053;-80
2022/09/26 11:05:58;;;;;;;4.90;2.15;;;11.90;99.90;;;;;;5020087;28;20400;-80
2022/09/26 11:08:27;;;;;;;2.70;1.77;;;11.90;99.90;;;;;;5008570;28;20084;-80
2022/09/26 11:11:03;;;;;;;4.13;2.47;;;11.90;99.90;;;;;;5001598;28;20049;-80
2022/09/26 11:13:46;;;;;;;4.93;2.17;;;12.00;99.90;;;;;;5021226;28;20038;-80
2022/09/26 11:16:19;;;;;;;3.97;2.17;;;12.00;99.90;;;;;;5004083;28;20057;-80
2022/09/26 11:19:23;;;;;;;7.30;2.58;;;12.10;99.90;;;;;;5010393;28;20050;-80
2022/09/26 11:21:54;;;;;;;3.22;1.80;;;12.20;99.90;;;;;;4993516;28;20100;-80
2022/09/26 11:24:36;;;;;;;5.57;2.17;;;12.30;99.90;;;;;;5011555;28;20076;-79
2022/09/26 11:27:32;;;;;;;3.22;2.28;;;12.30;99.90;;;;;;4994165;28;20384;-79
2022/09/26 11:30:10;;;;;;;4.35;2.47;;;12.40;99.90;;;;;;5009138;28;20584;-79
2022/09/26 11:32:46;;;;;;;3.30;2.03;;;12.40;99.90;;;;;;5015236;28;20030;-79
2022/09/26 11:35:29;;;;;;;7.75;2.10;;;12.40;99.90;;;;;;5016352;28;20068;-80
2022/09/26 11:38:04;;;;;;;4.60;2.00;;;12.50;99.90;;;;;;5014313;28;20034;-80
2022/09/26 11:41:08;;;;;;;3.28;2.28;;;12.60;99.90;;;;;;5017527;28;20091;-79
2022/09/26 11:43:33;;;;;;;3.38;2.13;;;12.70;99.90;;;;;;5016613;28;20080;-79
2022/09/26 11:46:27;;;;;;;4.70;2.30;;;12.70;99.90;;;;;;5015293;28;20476;-79
2022/09/26 11:49:12;;;;;;;3.53;2.20;;;12.60;99.90;;;;;;5018551;28;20061;-79
2022/09/26 11:51:56;;;;;;;3.90;1.95;;;12.60;99.90;;;;;;5017769;28;20046;-79
2022/09/26 11:54:46;;;;;;;3.10;2.00;;;12.60;99.90;;;;;;5014212;28;20368;-78
2022/09/26 11:57:18;;;;;;;7.38;2.38;;;12.60;99.90;;;;;;5013017;28;20034;-79
2022/09/26 12:00:04;;;;;;;4.35;2.00;;;12.60;99.90;;;;;;5026426;28;20041;-79
2022/09/26 12:03:03;;;;;;;2.90;1.83;;;12.60;99.90;;;;;;5034683;28;20046;-79
2022/09/26 12:05:41;;;;;;;4.82;2.20;;;12.70;99.90;;;;;;5032053;28;20119;-79
2022/09/26 12:08:26;;;;;;;3.53;2.20;;;12.80;99.90;;;;;;4996865;28;20073;-79
2022/09/26 12:11:18;;;;;;;3.15;2.10;;;12.80;99.90;;;;;;5017263;28;20050;-79
2022/09/26 12:14:21;;;;;;;3.63;2.35;;;13.00;99.90;;;;;;5010814;28;20396;-80
2022/09/26 12:17:04;;;;;;;3.50;1.95;;;13.20;99.90;;;;;;5020301;28;20124;-80
2022/09/26 12:19:45;;;;;;;3.92;1.95;;;13.30;99.90;;;;;;5013433;28;20077;-80
2022/09/26 12:22:28;;;;;;;3.22;1.90;;;13.20;99.90;;;;;;5010838;28;20045;-80
2022/09/26 12:25:17;;;;;;;4.45;1.90;;;13.30;99.90;;;;;;5014052;28;20064;-80
2022/09/26 12:28:06;;;;;;;3.72;2.42;;;13.30;99.90;;;;;;5015090;28;20062;-80
2022/09/26 12:30:45;;;;;;;4.50;2.08;;;13.40;99.90;;;;;;5003186;28;20104;-79
2022/09/26 12:33:32;;;;;;;5.45;2.58;;;13.50;99.90;;;;;;5013372;28;20054;-79
2022/09/26 12:36:30;;;;;;;7.28;3.72;;;13.70;99.90;;;;;;5013600;28;20044;-79
2022/09/26 12:39:07;;;;;;;4.03;2.30;;;13.90;99.90;;;;;;5012876;28;20078;-79
2022/09/26 12:41:45;;;;;;;5.40;2.40;;;13.90;99.90;;;;;;5014048;28;20128;-79
2022/09/26 12:44:38;;;;;;;3.67;2.65;;;13.90;99.90;;;;;;5033382;28;20045;-79
2022/09/26 12:47:13;;;;;;;2.92;1.88;;;13.90;99.90;;;;;;5029327;28;20391;-80
2022/09/26 12:49:41;;;;;;;3.30;2.00;;;13.80;99.90;;;;;;4993995;28;20452;-80
2022/09/26 12:52:35;;;;;;;4.10;2.00;;;13.80;99.90;;;;;;5012867;28;20431;-80
2022/09/26 12:55:23;;;;;;;5.05;2.13;;;13.80;99.90;;;;;;5013669;28;20372;-81
2022/09/26 12:58:04;;;;;;;5.47;2.20;;;13.70;99.90;;;;;;4996860;28;20033;-81
2022/09/26 13:00:39;;;;;;;4.45;2.47;;;14.00;99.90;;;;;;5010089;28;20089;-80
2022/09/26 13:03:20;;;;;;;6.20;2.08;;;14.00;99.90;;;;;;5013133;28;20398;-80
2022/09/26 13:05:57;;;;;;;4.10;1.98;;;13.80;99.90;;;;;;5015459;28;20096;-79
2022/09/26 13:08:38;;;;;;;3.65;1.92;;;14.10;99.90;;;;;;4985080;28;20774;-79
2022/09/26 13:11:10;;;;;;;4.70;2.10;;;14.00;99.90;;;;;;5012053;28;20068;-79
2022/09/26 13:13:45;;;;;;;3.72;1.90;;;13.90;99.90;;;;;;5018154;28;20034;-79
2022/09/26 13:16:26;;;;;;;3.77;1.80;;;13.80;99.90;;;;;;5026664;28;20045;-79
2022/09/26 13:19:04;;;;;;;2.60;1.60;;;13.90;99.90;;;;;;5023391;28;20045;-79
2022/09/26 13:22:03;;;;;;;1.83;1.30;;;13.90;99.90;;;;;;5021819;28;20037;-81
2022/09/26 13:24:51;;;;;;;2.75;1.67;;;13.90;99.90;;;;;;5003663;28;20042;-80
2022/09/26 13:27:26;;;;;;;5.03;1.70;;;14.00;99.90;;;;;;5026889;28;20099;-80
2022/09/26 13:30:18;;;;;;;1.63;1.40;;;14.20;99.90;;;;;;5007670;28;20049;-80
2022/09/26 13:33:18;;;;;;;2.88;1.55;;;14.20;99.90;;;;;;5001029;28;20520;-80